sensor_id;sensor_type;location;lat;lon;timestamp;P1;P2;P0
44933;PMS3003;30667;43.614;1.442;2024-03-25T00:01:06;6.25;5.75;2.00
44933;PMS3003;30667;43.614;1.442;2024-03-25T00:03:32;6.25;5.50;2.00
44933;PMS3003;30667;43.614;1.442;2024-03-25T00:05:57;5.50;5.50;1.75
44933;PMS3003;30667;43.614;1.442;2024-03-25T00:08:23;7.00;5.75;2.50
44933;PMS3003;30667;43.614;1.442;2024-03-25T00:10:48;5.75;5.00;2.00
44933;PMS3003;30667;43.614;1.442;2024-03-25T00:13:13;7.50;7.00;2.00
44933;PMS3003;30667;43.614;1.442;2024-03-25T00:15:39;8.60;6.60;2.00
44933;PMS3003;30667;43.614;1.442;2024-03-25T00:18:06;6.00;5.20;2.00
44933;PMS3003;30667;43.614;1.442;2024-03-25T00:20:31;6.50;6.00;2.00
44933;PMS3003;30667;43.614;1.442;2024-03-25T00:22:56;6.50;5.75;2.00
44933;PMS3003;30667;43.614;1.442;2024-03-25T00:25:22;5.75;5.75;2.00
44933;PMS3003;30667;43.614;1.442;2024-03-25T00:27:47;5.50;5.00;2.00
44933;PMS3003;30667;43.614;1.442;2024-03-25T00:30:13;6.25;6.00;2.00
44933;PMS3003;30667;43.614;1.442;2024-03-25T00:32:39;7.00;6.20;2.00
44933;PMS3003;30667;43.614;1.442;2024-03-25T00:35:05;6.00;5.00;2.25
44933;PMS3003;30667;43.614;1.442;2024-03-25T00:37:31;5.00;5.00;2.00
44933;PMS3003;30667;43.614;1.442;2024-03-25T00:39:56;5.50;5.50;2.00
44933;PMS3003;30667;43.614;1.442;2024-03-25T00:42:22;6.60;6.00;2.20
44933;PMS3003;30667;43.614;1.442;2024-03-25T00:44:48;4.00;4.00;1.25
44933;PMS3003;30667;43.614;1.442;2024-03-25T00:47:13;5.00;3.50;2.00
44933;PMS3003;30667;43.614;1.442;2024-03-25T00:49:38;6.50;5.75;2.00
44933;PMS3003;30667;43.614;1.442;2024-03-25T00:52:04;5.00;5.00;2.00
44933;PMS3003;30667;43.614;1.442;2024-03-25T00:54:30;6.00;5.00;2.00
44933;PMS3003;30667;43.614;1.442;2024-03-25T00:56:55;5.50;5.00;1.00
44933;PMS3003;30667;43.614;1.442;2024-03-25T00:59:20;6.00;4.00;1.00
44933;PMS3003;30667;43.614;1.442;2024-03-25T01:01:46;3.00;2.75;1.00
44933;PMS3003;30667;43.614;1.442;2024-03-25T01:04:11;3.00;3.00;1.25
44933;PMS3003;30667;43.614;1.442;2024-03-25T01:06:37;4.50;4.50;2.00
44933;PMS3003;30667;43.614;1.442;2024-03-25T01:09:02;6.00;5.25;1.00
44933;PMS3003;30667;43.614;1.442;2024-03-25T01:11:29;5.20;5.00;1.60
44933;PMS3003;30667;43.614;1.442;2024-03-25T01:13:55;5.00;5.00;1.20
44933;PMS3003;30667;43.614;1.442;2024-03-25T01:16:21;5.50;5.50;2.00
44933;PMS3003;30667;43.614;1.442;2024-03-25T01:18:47;4.00;4.00;1.00
44933;PMS3003;30667;43.614;1.442;2024-03-25T01:21:12;5.00;4.00;1.00
44933;PMS3003;30667;43.614;1.442;2024-03-25T01:23:37;5.75;5.00;2.00
44933;PMS3003;30667;43.614;1.442;2024-03-25T01:26:03;5.00;5.00;1.75
44933;PMS3003;30667;43.614;1.442;2024-03-25T01:28:28;8.00;6.25;2.00
44933;PMS3003;30667;43.614;1.442;2024-03-25T01:30:54;7.25;3.50;1.00
44933;PMS3003;30667;43.614;1.442;2024-03-25T01:33:19;5.00;5.00;2.50
44933;PMS3003;30667;43.614;1.442;2024-03-25T01:35:45;7.50;5.75;2.25
44933;PMS3003;30667;43.614;1.442;2024-03-25T01:38:10;6.00;5.25;2.00
44933;PMS3003;30667;43.614;1.442;2024-03-25T01:40:35;9.50;6.25;2.00
44933;PMS3003;30667;43.614;1.442;2024-03-25T01:43:02;5.25;5.00;2.00
44933;PMS3003;30667;43.614;1.442;2024-03-25T01:45:29;4.20;4.20;1.00
44933;PMS3003;30667;43.614;1.442;2024-03-25T01:47:59;5.60;5.00;1.20
44933;PMS3003;30667;43.614;1.442;2024-03-25T01:50:28;6.00;5.00;1.60
44933;PMS3003;30667;43.614;1.442;2024-03-25T01:52:56;5.00;3.40;1.00
44933;PMS3003;30667;43.614;1.442;2024-03-25T01:55:24;5.00;3.20;1.00
44933;PMS3003;30667;43.614;1.442;2024-03-25T01:57:52;3.00;3.00;1.00
44933;PMS3003;30667;43.614;1.442;2024-03-25T02:00:18;3.25;3.25;1.50
44933;PMS3003;30667;43.614;1.442;2024-03-25T02:02:45;2.80;2.60;1.00
44933;PMS3003;30667;43.614;1.442;2024-03-25T02:05:12;5.80;5.00;1.20
44933;PMS3003;30667;43.614;1.442;2024-03-25T02:07:41;6.00;6.00;2.00
44933;PMS3003;30667;43.614;1.442;2024-03-25T02:10:08;4.80;3.60;0.80
44933;PMS3003;30667;43.614;1.442;2024-03-25T02:12:40;4.60;4.60;1.20
44933;PMS3003;30667;43.614;1.442;2024-03-25T02:15:09;3.00;3.00;1.80
44933;PMS3003;30667;43.614;1.442;2024-03-25T02:17:36;2.80;2.80;0.60
44933;PMS3003;30667;43.614;1.442;2024-03-25T02:20:03;6.00;4.40;1.20
44933;PMS3003;30667;43.614;1.442;2024-03-25T02:22:35;4.60;3.00;1.00
44933;PMS3003;30667;43.614;1.442;2024-03-25T02:25:01;3.60;3.60;1.00
44933;PMS3003;30667;43.614;1.442;2024-03-25T02:27:32;3.00;3.00;1.00
44933;PMS3003;30667;43.614;1.442;2024-03-25T02:30:07;6.00;3.75;1.00
44933;PMS3003;30667;43.614;1.442;2024-03-25T02:32:35;4.80;3.60;0.80
44933;PMS3003;30667;43.614;1.442;2024-03-25T02:35:05;5.00;5.00;1.00
44933;PMS3003;30667;43.614;1.442;2024-03-25T02:37:35;5.00;2.60;0.00
44933;PMS3003;30667;43.614;1.442;2024-03-25T02:40:01;5.00;3.60;0.00
44933;PMS3003;30667;43.614;1.442;2024-03-25T02:42:30;4.25;3.00;1.00
44933;PMS3003;30667;43.614;1.442;2024-03-25T02:44:56;4.00;3.00;1.00
44933;PMS3003;30667;43.614;1.442;2024-03-25T02:47:21;5.00;5.00;1.00
44933;PMS3003;30667;43.614;1.442;2024-03-25T02:49:47;3.00;3.00;0.75
44933;PMS3003;30667;43.614;1.442;2024-03-25T02:52:13;3.00;2.50;1.00
44933;PMS3003;30667;43.614;1.442;2024-03-25T02:54:38;2.25;2.25;1.00
44933;PMS3003;30667;43.614;1.442;2024-03-25T02:57:03;3.00;3.00;0.00
44933;PMS3003;30667;43.614;1.442;2024-03-25T02:59:29;3.00;2.75;1.00
44933;PMS3003;30667;43.614;1.442;2024-03-25T03:01:54;4.50;3.00;1.00
44933;PMS3003;30667;43.614;1.442;2024-03-25T03:04:20;3.00;2.00;1.00
44933;PMS3003;30667;43.614;1.442;2024-03-25T03:06:45;2.50;2.00;0.00
44933;PMS3003;30667;43.614;1.442;2024-03-25T03:09:10;2.00;2.00;0.00
44933;PMS3003;30667;43.614;1.442;2024-03-25T03:11:36;2.00;2.00;0.00
44933;PMS3003;30667;43.614;1.442;2024-03-25T03:14:01;3.50;2.75;0.50
44933;PMS3003;30667;43.614;1.442;2024-03-25T03:16:27;2.80;2.60;0.80
44933;PMS3003;30667;43.614;1.442;2024-03-25T03:18:54;2.00;2.00;0.00
44933;PMS3003;30667;43.614;1.442;2024-03-25T03:21:19;2.00;2.00;0.00
44933;PMS3003;30667;43.614;1.442;2024-03-25T03:23:45;2.00;2.00;0.00
44933;PMS3003;30667;43.614;1.442;2024-03-25T03:26:10;4.75;3.00;0.50
44933;PMS3003;30667;43.614;1.442;2024-03-25T03:28:35;5.25;2.50;0.00
44933;PMS3003;30667;43.614;1.442;2024-03-25T03:31:01;5.00;3.00;1.00
44933;PMS3003;30667;43.614;1.442;2024-03-25T03:33:26;2.25;2.00;0.75
44933;PMS3003;30667;43.614;1.442;2024-03-25T03:35:52;1.75;1.75;0.00
44933;PMS3003;30667;43.614;1.442;2024-03-25T03:38:17;2.00;2.00;0.00
44933;PMS3003;30667;43.614;1.442;2024-03-25T03:40:43;2.00;2.00;0.00
44933;PMS3003;30667;43.614;1.442;2024-03-25T03:43:20;1.80;1.60;0.00
44933;PMS3003;30667;43.614;1.442;2024-03-25T03:45:46;2.00;2.00;0.75
44933;PMS3003;30667;43.614;1.442;2024-03-25T03:48:11;1.75;1.75;0.00
44933;PMS3003;30667;43.614;1.442;2024-03-25T03:50:36;2.00;2.00;0.00
44933;PMS3003;30667;43.614;1.442;2024-03-25T03:53:02;4.00;1.50;0.00
44933;PMS3003;30667;43.614;1.442;2024-03-25T03:55:27;3.00;2.00;0.00
44933;PMS3003;30667;43.614;1.442;2024-03-25T03:57:53;5.25;3.00;0.00
44933;PMS3003;30667;43.614;1.442;2024-03-25T04:00:18;4.00;4.00;1.00
44933;PMS3003;30667;43.614;1.442;2024-03-25T04:02:43;5.00;2.50;1.00
44933;PMS3003;30667;43.614;1.442;2024-03-25T04:05:09;2.00;2.00;0.00
44933;PMS3003;30667;43.614;1.442;2024-03-25T04:07:34;3.00;2.00;0.25
44933;PMS3003;30667;43.614;1.442;2024-03-25T04:09:59;1.00;1.00;0.00
44933;PMS3003;30667;43.614;1.442;2024-03-25T04:12:25;2.00;2.00;0.00
44933;PMS3003;30667;43.614;1.442;2024-03-25T04:14:51;2.00;2.00;0.00
44933;PMS3003;30667;43.614;1.442;2024-03-25T04:17:20;5.00;3.80;1.00
44933;PMS3003;30667;43.614;1.442;2024-03-25T04:19:46;3.00;2.40;0.00
44933;PMS3003;30667;43.614;1.442;2024-03-25T04:22:12;3.80;2.00;0.40
44933;PMS3003;30667;43.614;1.442;2024-03-25T04:24:38;4.25;4.25;1.00
44933;PMS3003;30667;43.614;1.442;2024-03-25T04:27:03;3.25;3.25;0.75
44933;PMS3003;30667;43.614;1.442;2024-03-25T04:29:29;4.50;2.00;0.75
44933;PMS3003;30667;43.614;1.442;2024-03-25T04:31:54;2.75;2.75;0.25
44933;PMS3003;30667;43.614;1.442;2024-03-25T04:34:19;4.00;2.75;1.00
44933;PMS3003;30667;43.614;1.442;2024-03-25T04:36:45;3.00;3.00;1.00
44933;PMS3003;30667;43.614;1.442;2024-03-25T04:39:11;4.25;2.50;1.00
44933;PMS3003;30667;43.614;1.442;2024-03-25T04:41:36;4.00;4.00;1.00
44933;PMS3003;30667;43.614;1.442;2024-03-25T04:44:02;4.25;4.00;1.00
44933;PMS3003;30667;43.614;1.442;2024-03-25T04:46:27;3.50;3.50;1.00
44933;PMS3003;30667;43.614;1.442;2024-03-25T04:48:52;7.50;4.00;1.00
44933;PMS3003;30667;43.614;1.442;2024-03-25T04:51:18;6.20;4.40;1.20
44933;PMS3003;30667;43.614;1.442;2024-03-25T04:53:44;4.00;4.00;0.75
44933;PMS3003;30667;43.614;1.442;2024-03-25T04:56:09;4.00;4.00;1.00
44933;PMS3003;30667;43.614;1.442;2024-03-25T04:58:35;4.00;2.00;1.00
44933;PMS3003;30667;43.614;1.442;2024-03-25T05:01:01;3.50;3.25;0.50
44933;PMS3003;30667;43.614;1.442;2024-03-25T05:03:26;3.00;3.00;0.50
44933;PMS3003;30667;43.614;1.442;2024-03-25T05:05:51;4.00;4.00;0.75
44933;PMS3003;30667;43.614;1.442;2024-03-25T05:08:17;4.00;4.00;1.00
44933;PMS3003;30667;43.614;1.442;2024-03-25T05:10:42;2.00;2.00;0.00
44933;PMS3003;30667;43.614;1.442;2024-03-25T05:13:07;2.00;2.00;0.75
44933;PMS3003;30667;43.614;1.442;2024-03-25T05:15:33;4.75;4.00;0.25
44933;PMS3003;30667;43.614;1.442;2024-03-25T05:17:58;4.00;3.00;0.00
44933;PMS3003;30667;43.614;1.442;2024-03-25T05:20:23;5.00;4.00;0.25
44933;PMS3003;30667;43.614;1.442;2024-03-25T05:22:49;5.00;5.00;1.00
44933;PMS3003;30667;43.614;1.442;2024-03-25T05:25:15;5.00;4.00;1.00
44933;PMS3003;30667;43.614;1.442;2024-03-25T05:27:40;2.00;2.00;1.00
44933;PMS3003;30667;43.614;1.442;2024-03-25T05:30:05;2.00;2.00;0.50
44933;PMS3003;30667;43.614;1.442;2024-03-25T05:32:31;3.20;3.20;1.00
44933;PMS3003;30667;43.614;1.442;2024-03-25T05:34:57;4.00;4.00;0.75
44933;PMS3003;30667;43.614;1.442;2024-03-25T05:37:22;4.00;3.75;0.50
44933;PMS3003;30667;43.614;1.442;2024-03-25T05:39:47;3.25;3.25;0.25
44933;PMS3003;30667;43.614;1.442;2024-03-25T05:42:13;5.00;5.00;1.00
44933;PMS3003;30667;43.614;1.442;2024-03-25T05:44:38;5.75;5.00;1.00
44933;PMS3003;30667;43.614;1.442;2024-03-25T05:47:04;5.25;4.25;1.00
44933;PMS3003;30667;43.614;1.442;2024-03-25T05:49:29;2.75;2.75;1.00
44933;PMS3003;30667;43.614;1.442;2024-03-25T05:51:54;6.00;5.00;1.00
44933;PMS3003;30667;43.614;1.442;2024-03-25T05:54:20;5.00;4.00;1.00
44933;PMS3003;30667;43.614;1.442;2024-03-25T05:56:45;4.25;4.00;1.00
44933;PMS3003;30667;43.614;1.442;2024-03-25T05:59:10;2.00;2.00;1.00
44933;PMS3003;30667;43.614;1.442;2024-03-25T06:01:36;4.75;4.75;1.00
44933;PMS3003;30667;43.614;1.442;2024-03-25T06:04:02;5.20;5.00;1.00
44933;PMS3003;30667;43.614;1.442;2024-03-25T06:06:28;4.00;4.00;1.00
44933;PMS3003;30667;43.614;1.442;2024-03-25T06:08:54;5.00;5.00;1.00
44933;PMS3003;30667;43.614;1.442;2024-03-25T06:11:19;4.00;4.00;1.00
44933;PMS3003;30667;43.614;1.442;2024-03-25T06:13:47;5.25;4.00;1.00
44933;PMS3003;30667;43.614;1.442;2024-03-25T06:16:13;5.60;4.60;1.40
44933;PMS3003;30667;43.614;1.442;2024-03-25T06:18:39;7.60;4.80;1.00
44933;PMS3003;30667;43.614;1.442;2024-03-25T06:21:05;4.00;4.00;1.00
44933;PMS3003;30667;43.614;1.442;2024-03-25T06:23:30;3.00;3.00;0.50
44933;PMS3003;30667;43.614;1.442;2024-03-25T06:25:56;4.00;4.00;1.00
44933;PMS3003;30667;43.614;1.442;2024-03-25T06:28:22;5.00;5.00;1.00
44933;PMS3003;30667;43.614;1.442;2024-03-25T06:30:47;5.00;4.00;1.00
44933;PMS3003;30667;43.614;1.442;2024-03-25T06:33:32;4.00;4.00;1.00
44933;PMS3003;30667;43.614;1.442;2024-03-25T06:36:17;5.40;5.20;1.00
44933;PMS3003;30667;43.614;1.442;2024-03-25T06:38:43;5.20;4.00;1.00
44933;PMS3003;30667;43.614;1.442;2024-03-25T06:41:09;4.00;2.00;0.80
44933;PMS3003;30667;43.614;1.442;2024-03-25T06:43:34;4.00;4.00;1.00
44933;PMS3003;30667;43.614;1.442;2024-03-25T06:46:01;3.00;2.20;0.80
44933;PMS3003;30667;43.614;1.442;2024-03-25T06:48:27;5.00;3.80;1.00
44933;PMS3003;30667;43.614;1.442;2024-03-25T06:50:53;4.80;2.00;0.40
44933;PMS3003;30667;43.614;1.442;2024-03-25T06:53:22;3.80;3.80;1.00
44933;PMS3003;30667;43.614;1.442;2024-03-25T06:58:21;6.80;5.00;1.00
44933;PMS3003;30667;43.614;1.442;2024-03-25T07:00:48;5.80;5.60;2.00
44933;PMS3003;30667;43.614;1.442;2024-03-25T07:03:17;5.25;5.00;1.50
44933;PMS3003;30667;43.614;1.442;2024-03-25T07:05:44;5.20;4.80;2.00
44933;PMS3003;30667;43.614;1.442;2024-03-25T07:08:10;3.60;3.20;1.00
44933;PMS3003;30667;43.614;1.442;2024-03-25T07:10:36;4.60;4.60;2.00
44933;PMS3003;30667;43.614;1.442;2024-03-25T07:13:02;6.20;5.00;1.00
44933;PMS3003;30667;43.614;1.442;2024-03-25T07:15:28;4.25;4.00;1.00
44933;PMS3003;30667;43.614;1.442;2024-03-25T07:17:53;4.25;4.25;1.00
44933;PMS3003;30667;43.614;1.442;2024-03-25T07:20:18;5.25;4.25;1.00
44933;PMS3003;30667;43.614;1.442;2024-03-25T07:22:44;3.25;3.25;1.25
44933;PMS3003;30667;43.614;1.442;2024-03-25T07:25:10;5.25;5.25;1.00
44933;PMS3003;30667;43.614;1.442;2024-03-25T07:27:35;4.75;4.75;1.50
44933;PMS3003;30667;43.614;1.442;2024-03-25T07:30:00;5.50;5.00;2.00
44933;PMS3003;30667;43.614;1.442;2024-03-25T07:32:26;5.20;5.00;2.00
44933;PMS3003;30667;43.614;1.442;2024-03-25T07:34:52;7.75;6.75;2.00
44933;PMS3003;30667;43.614;1.442;2024-03-25T07:37:17;5.50;4.75;1.75
44933;PMS3003;30667;43.614;1.442;2024-03-25T07:39:42;5.25;5.00;1.00
44933;PMS3003;30667;43.614;1.442;2024-03-25T07:42:10;5.00;4.40;1.00
44933;PMS3003;30667;43.614;1.442;2024-03-25T07:44:36;5.50;5.00;1.75
44933;PMS3003;30667;43.614;1.442;2024-03-25T07:47:01;5.00;5.00;1.75
44933;PMS3003;30667;43.614;1.442;2024-03-25T07:49:27;5.00;5.00;1.75
44933;PMS3003;30667;43.614;1.442;2024-03-25T07:51:52;4.50;4.00;1.00
44933;PMS3003;30667;43.614;1.442;2024-03-25T07:54:17;7.75;5.25;2.00
44933;PMS3003;30667;43.614;1.442;2024-03-25T07:56:45;3.80;3.80;1.00
44933;PMS3003;30667;43.614;1.442;2024-03-25T07:59:10;6.00;5.00;1.00
44933;PMS3003;30667;43.614;1.442;2024-03-25T08:01:35;5.75;5.00;2.00
44933;PMS3003;30667;43.614;1.442;2024-03-25T08:04:01;4.25;4.00;1.00
44933;PMS3003;30667;43.614;1.442;2024-03-25T08:06:27;4.20;4.20;1.00
44933;PMS3003;30667;43.614;1.442;2024-03-25T08:08:52;2.75;2.75;1.00
44933;PMS3003;30667;43.614;1.442;2024-03-25T08:11:18;4.00;3.50;1.00
44933;PMS3003;30667;43.614;1.442;2024-03-25T08:13:43;5.00;4.50;1.00
44933;PMS3003;30667;43.614;1.442;2024-03-25T08:16:08;2.25;2.25;0.75
44933;PMS3003;30667;43.614;1.442;2024-03-25T08:18:34;3.75;3.75;1.00
44933;PMS3003;30667;43.614;1.442;2024-03-25T08:21:00;4.20;3.20;0.80
44933;PMS3003;30667;43.614;1.442;2024-03-25T08:23:25;3.00;3.00;1.00
44933;PMS3003;30667;43.614;1.442;2024-03-25T08:25:50;3.25;3.00;0.75
44933;PMS3003;30667;43.614;1.442;2024-03-25T08:28:16;1.75;1.75;0.00
44933;PMS3003;30667;43.614;1.442;2024-03-25T08:30:41;2.00;2.00;1.00
44933;PMS3003;30667;43.614;1.442;2024-03-25T08:33:07;2.25;2.00;0.00
44933;PMS3003;30667;43.614;1.442;2024-03-25T08:35:33;2.20;2.00;0.00
44933;PMS3003;30667;43.614;1.442;2024-03-25T08:37:58;2.00;2.00;0.00
44933;PMS3003;30667;43.614;1.442;2024-03-25T08:40:24;2.00;1.25;0.00
44933;PMS3003;30667;43.614;1.442;2024-03-25T08:42:49;2.75;2.00;0.00
44933;PMS3003;30667;43.614;1.442;2024-03-25T08:45:14;2.00;2.00;0.00
44933;PMS3003;30667;43.614;1.442;2024-03-25T08:47:40;2.00;1.00;0.00
44933;PMS3003;30667;43.614;1.442;2024-03-25T08:50:07;1.80;1.00;0.00
44933;PMS3003;30667;43.614;1.442;2024-03-25T08:52:33;1.00;1.00;0.00
44933;PMS3003;30667;43.614;1.442;2024-03-25T08:54:58;1.75;1.00;0.00
44933;PMS3003;30667;43.614;1.442;2024-03-25T08:57:24;2.00;1.25;0.00
44933;PMS3003;30667;43.614;1.442;2024-03-25T08:59:49;1.00;1.00;0.00
44933;PMS3003;30667;43.614;1.442;2024-03-25T09:02:14;0.75;0.75;0.00
44933;PMS3003;30667;43.614;1.442;2024-03-25T09:04:40;2.00;1.25;0.00
44933;PMS3003;30667;43.614;1.442;2024-03-25T09:07:05;2.00;1.00;0.00
44933;PMS3003;30667;43.614;1.442;2024-03-25T09:09:30;1.00;1.00;0.00
44933;PMS3003;30667;43.614;1.442;2024-03-25T09:12:14;2.00;1.20;0.00
44933;PMS3003;30667;43.614;1.442;2024-03-25T09:14:39;2.00;1.00;0.00
44933;PMS3003;30667;43.614;1.442;2024-03-25T09:17:05;2.00;1.00;0.00
44933;PMS3003;30667;43.614;1.442;2024-03-25T09:19:30;1.50;1.00;0.00
44933;PMS3003;30667;43.614;1.442;2024-03-25T09:21:56;1.50;1.00;0.00
44933;PMS3003;30667;43.614;1.442;2024-03-25T09:24:21;3.00;2.00;0.00
44933;PMS3003;30667;43.614;1.442;2024-03-25T09:26:49;2.00;2.00;0.00
44933;PMS3003;30667;43.614;1.442;2024-03-25T09:29:15;2.00;1.00;0.00
44933;PMS3003;30667;43.614;1.442;2024-03-25T09:31:41;1.40;1.00;0.00
44933;PMS3003;30667;43.614;1.442;2024-03-25T09:34:06;1.00;1.00;0.00
44933;PMS3003;30667;43.614;1.442;2024-03-25T09:36:31;3.00;1.00;0.00
44933;PMS3003;30667;43.614;1.442;2024-03-25T09:38:57;1.00;1.00;0.00
44933;PMS3003;30667;43.614;1.442;2024-03-25T09:41:22;2.00;2.00;0.00
44933;PMS3003;30667;43.614;1.442;2024-03-25T09:43:48;1.00;1.00;0.00
44933;PMS3003;30667;43.614;1.442;2024-03-25T09:46:18;1.60;1.60;0.00
44933;PMS3003;30667;43.614;1.442;2024-03-25T09:48:44;0.25;0.25;0.00
44933;PMS3003;30667;43.614;1.442;2024-03-25T09:51:09;2.00;1.00;0.00
44933;PMS3003;30667;43.614;1.442;2024-03-25T09:53:35;2.00;1.25;0.00
44933;PMS3003;30667;43.614;1.442;2024-03-25T09:56:01;1.00;1.00;0.00
44933;PMS3003;30667;43.614;1.442;2024-03-25T09:58:26;2.00;2.00;0.00
44933;PMS3003;30667;43.614;1.442;2024-03-25T10:00:53;1.20;1.00;0.00
44933;PMS3003;30667;43.614;1.442;2024-03-25T10:03:20;1.40;1.00;0.00
44933;PMS3003;30667;43.614;1.442;2024-03-25T10:05:46;1.00;1.00;0.00
44933;PMS3003;30667;43.614;1.442;2024-03-25T10:08:11;2.75;1.75;0.00
44933;PMS3003;30667;43.614;1.442;2024-03-25T10:10:36;1.50;1.00;0.00
44933;PMS3003;30667;43.614;1.442;2024-03-25T10:13:05;2.00;2.00;0.00
44933;PMS3003;30667;43.614;1.442;2024-03-25T10:15:31;2.00;2.00;0.00
44933;PMS3003;30667;43.614;1.442;2024-03-25T10:17:57;1.00;1.00;0.00
44933;PMS3003;30667;43.614;1.442;2024-03-25T10:20:23;3.75;2.25;0.00
44933;PMS3003;30667;43.614;1.442;2024-03-25T10:22:49;1.50;1.00;0.00
44933;PMS3003;30667;43.614;1.442;2024-03-25T10:27:54;2.00;2.00;0.00
44933;PMS3003;30667;43.614;1.442;2024-03-25T10:30:24;1.80;1.80;0.00
44933;PMS3003;30667;43.614;1.442;2024-03-25T10:33:00;1.00;1.00;0.00
44933;PMS3003;30667;43.614;1.442;2024-03-25T10:35:27;1.80;1.00;0.00
44933;PMS3003;30667;43.614;1.442;2024-03-25T10:37:58;3.00;1.80;0.00
44933;PMS3003;30667;43.614;1.442;2024-03-25T10:40:26;1.00;1.00;0.00
44933;PMS3003;30667;43.614;1.442;2024-03-25T10:45:30;1.00;1.00;0.00
44933;PMS3003;30667;43.614;1.442;2024-03-25T10:48:00;1.40;1.00;0.00
44933;PMS3003;30667;43.614;1.442;2024-03-25T10:50:29;1.80;1.40;0.00
44933;PMS3003;30667;43.614;1.442;2024-03-25T10:52:55;2.40;1.20;0.00
44933;PMS3003;30667;43.614;1.442;2024-03-25T10:55:22;2.00;1.40;0.00
44933;PMS3003;30667;43.614;1.442;2024-03-25T10:57:49;1.00;1.00;0.60
44933;PMS3003;30667;43.614;1.442;2024-03-25T11:00:16;3.00;2.00;0.00
44933;PMS3003;30667;43.614;1.442;2024-03-25T11:02:44;1.00;1.00;0.00
44933;PMS3003;30667;43.614;1.442;2024-03-25T11:05:10;1.00;1.00;0.00
44933;PMS3003;30667;43.614;1.442;2024-03-25T11:07:37;1.80;1.20;0.00
44933;PMS3003;30667;43.614;1.442;2024-03-25T11:10:06;4.20;4.00;1.00
44933;PMS3003;30667;43.614;1.442;2024-03-25T11:12:35;8.20;5.40;2.00
44933;PMS3003;30667;43.614;1.442;2024-03-25T11:15:02;11.40;9.20;4.00
44933;PMS3003;30667;43.614;1.442;2024-03-25T11:17:32;12.20;11.00;6.40
44933;PMS3003;30667;43.614;1.442;2024-03-25T11:20:15;35.80;31.60;22.00
44933;PMS3003;30667;43.614;1.442;2024-03-25T11:22:50;9.80;8.00;4.40
44933;PMS3003;30667;43.614;1.442;2024-03-25T11:25:17;9.40;8.40;4.80
44933;PMS3003;30667;43.614;1.442;2024-03-25T11:27:45;16.40;15.80;9.40
44933;PMS3003;30667;43.614;1.442;2024-03-25T11:30:11;22.75;20.25;12.50
44933;PMS3003;30667;43.614;1.442;2024-03-25T11:32:51;17.40;14.80;9.60
44933;PMS3003;30667;43.614;1.442;2024-03-25T11:35:17;6.60;5.60;2.20
44933;PMS3003;30667;43.614;1.442;2024-03-25T11:37:43;9.60;8.20;3.40
44933;PMS3003;30667;43.614;1.442;2024-03-25T11:40:09;9.25;8.50;4.00
44933;PMS3003;30667;43.614;1.442;2024-03-25T11:42:43;9.40;9.40;4.20
44933;PMS3003;30667;43.614;1.442;2024-03-25T11:47:45;3.20;3.20;1.00
44933;PMS3003;30667;43.614;1.442;2024-03-25T11:50:12;3.00;3.00;1.00
44933;PMS3003;30667;43.614;1.442;2024-03-25T11:52:39;3.00;3.00;1.00
44933;PMS3003;30667;43.614;1.442;2024-03-25T11:55:05;4.40;4.40;1.00
44933;PMS3003;30667;43.614;1.442;2024-03-25T11:57:33;2.00;2.00;0.00
44933;PMS3003;30667;43.614;1.442;2024-03-25T11:59:59;4.20;3.20;0.00
44933;PMS3003;30667;43.614;1.442;2024-03-25T12:02:25;3.00;2.75;1.00
44933;PMS3003;30667;43.614;1.442;2024-03-25T12:04:51;3.00;2.00;1.00
44933;PMS3003;30667;43.614;1.442;2024-03-25T12:07:16;4.00;3.00;0.75
44933;PMS3003;30667;43.614;1.442;2024-03-25T12:09:42;2.50;2.50;1.00
44933;PMS3003;30667;43.614;1.442;2024-03-25T12:12:26;4.40;3.60;1.00
44933;PMS3003;30667;43.614;1.442;2024-03-25T12:14:56;3.20;3.00;1.00
44933;PMS3003;30667;43.614;1.442;2024-03-25T12:17:22;1.60;1.60;0.00
44933;PMS3003;30667;43.614;1.442;2024-03-25T12:22:35;2.00;2.00;0.00
44933;PMS3003;30667;43.614;1.442;2024-03-25T12:25:02;3.00;2.00;0.00
44933;PMS3003;30667;43.614;1.442;2024-03-25T12:27:29;2.20;2.20;1.00
44933;PMS3003;30667;43.614;1.442;2024-03-25T12:29:58;4.00;2.40;0.60
44933;PMS3003;30667;43.614;1.442;2024-03-25T12:32:46;2.80;1.80;0.20
44933;PMS3003;30667;43.614;1.442;2024-03-25T12:35:12;3.00;3.00;0.00
44933;PMS3003;30667;43.614;1.442;2024-03-25T12:37:41;3.60;2.00;0.00
44933;PMS3003;30667;43.614;1.442;2024-03-25T12:40:27;2.40;2.00;0.00
44933;PMS3003;30667;43.614;1.442;2024-03-25T12:42:53;3.00;3.00;0.40
44933;PMS3003;30667;43.614;1.442;2024-03-25T12:45:22;1.40;1.20;0.00
44933;PMS3003;30667;43.614;1.442;2024-03-25T12:47:48;2.00;2.00;0.00
44933;PMS3003;30667;43.614;1.442;2024-03-25T12:50:14;1.00;1.00;0.00
44933;PMS3003;30667;43.614;1.442;2024-03-25T12:52:40;3.00;2.00;0.00
44933;PMS3003;30667;43.614;1.442;2024-03-25T12:55:05;4.00;2.50;0.00
44933;PMS3003;30667;43.614;1.442;2024-03-25T12:57:31;1.75;1.75;0.00
44933;PMS3003;30667;43.614;1.442;2024-03-25T12:59:56;3.75;1.75;0.00
44933;PMS3003;30667;43.614;1.442;2024-03-25T13:02:22;3.50;2.00;0.00
44933;PMS3003;30667;43.614;1.442;2024-03-25T13:04:47;1.00;1.00;0.00
44933;PMS3003;30667;43.614;1.442;2024-03-25T13:07:12;2.00;2.00;0.00
44933;PMS3003;30667;43.614;1.442;2024-03-25T13:09:38;1.00;1.00;0.00
44933;PMS3003;30667;43.614;1.442;2024-03-25T13:12:03;1.50;1.50;0.00
44933;PMS3003;30667;43.614;1.442;2024-03-25T13:14:29;3.00;2.00;0.00
44933;PMS3003;30667;43.614;1.442;2024-03-25T13:16:55;1.00;1.00;0.00
44933;PMS3003;30667;43.614;1.442;2024-03-25T13:19:20;3.20;2.20;0.00
44933;PMS3003;30667;43.614;1.442;2024-03-25T13:21:46;2.75;2.00;0.00
44933;PMS3003;30667;43.614;1.442;2024-03-25T13:24:12;3.80;2.80;0.20
44933;PMS3003;30667;43.614;1.442;2024-03-25T13:26:38;3.50;2.00;0.25
44933;PMS3003;30667;43.614;1.442;2024-03-25T13:29:03;3.00;2.00;0.00
44933;PMS3003;30667;43.614;1.442;2024-03-25T13:31:30;4.00;3.20;0.80
44933;PMS3003;30667;43.614;1.442;2024-03-25T13:33:55;2.50;1.50;0.00
44933;PMS3003;30667;43.614;1.442;2024-03-25T13:36:21;2.50;2.00;0.00
44933;PMS3003;30667;43.614;1.442;2024-03-25T13:38:46;1.50;1.50;0.00
44933;PMS3003;30667;43.614;1.442;2024-03-25T13:41:17;2.00;2.00;0.00
44933;PMS3003;30667;43.614;1.442;2024-03-25T13:43:46;1.20;1.00;0.00
44933;PMS3003;30667;43.614;1.442;2024-03-25T13:46:12;2.50;2.00;0.00
44933;PMS3003;30667;43.614;1.442;2024-03-25T13:48:38;1.40;1.20;0.00
44933;PMS3003;30667;43.614;1.442;2024-03-25T13:51:03;2.00;2.00;0.00
44933;PMS3003;30667;43.614;1.442;2024-03-25T13:53:29;1.50;1.00;0.00
44933;PMS3003;30667;43.614;1.442;2024-03-25T13:55:54;1.00;1.00;0.00
44933;PMS3003;30667;43.614;1.442;2024-03-25T13:58:20;2.75;2.00;0.00
44933;PMS3003;30667;43.614;1.442;2024-03-25T14:00:45;2.00;1.50;0.00
44933;PMS3003;30667;43.614;1.442;2024-03-25T14:03:11;1.00;1.00;0.00
44933;PMS3003;30667;43.614;1.442;2024-03-25T14:05:36;3.50;3.00;0.00
44933;PMS3003;30667;43.614;1.442;2024-03-25T14:08:02;2.00;2.00;0.00
44933;PMS3003;30667;43.614;1.442;2024-03-25T14:10:28;2.00;1.00;0.00
44933;PMS3003;30667;43.614;1.442;2024-03-25T14:12:55;1.60;1.60;0.20
44933;PMS3003;30667;43.614;1.442;2024-03-25T14:15:20;2.00;2.00;0.00
44933;PMS3003;30667;43.614;1.442;2024-03-25T14:17:46;2.25;2.00;0.00
44933;PMS3003;30667;43.614;1.442;2024-03-25T14:20:11;1.25;1.25;0.00
44933;PMS3003;30667;43.614;1.442;2024-03-25T14:22:36;4.00;3.00;0.00
44933;PMS3003;30667;43.614;1.442;2024-03-25T14:25:02;2.00;1.25;0.00
44933;PMS3003;30667;43.614;1.442;2024-03-25T14:27:27;1.50;1.00;0.00
44933;PMS3003;30667;43.614;1.442;2024-03-25T14:29:53;2.00;2.00;0.25